Atlantic Beach, North Carolina
Current Conditions -  °F | °C
As of 6:58 PM on Thursday 18 Dec 2014 (Local Time) from KMRH Reporting Station
Clear Clear  
Wind Chill: 40°   Ceiling: Unl
Heat Index: 40°   Visibility: 10mi
Dew Point: 33°   Wind: 0mph
Humidity: 77%   Direction: NA
Pressure: 30.12"   Gusts: NA
Location:  34.7°N, 76.74°W
Report Text: KMRH 182358Z AUTO 00000KT 10SM CLR 04/01 A3012 RMK AO2 SLP199 I1000 I6/// T00440006 10111 20044 53011 TSNO
Loading
Personal Weather Stations






























Interactive Weather Map New forecast layout! Learn more

10-Day Weather Forecast

Advertisements
Track Severe Weather on mobile